Fantasia — ICJY — position and weather

sailwx.info

Track history (hours):
 
Tides and Currents Weather Stations Pressure Air Temp Water Temp Dewpoint Dewpoint Depression Visibility Wind Speed Wind Dir Waves Ship Positions

Fantasia

Last reported at 2017-Nov-16 10:53 UTC. Time now 2017-Nov-20 06:06 UTC.
Position N 25°28' W 079°31'.

Length 183 m; draft 8.1 m.

Type: Tanker. MMSI: 247279600.

Date/timePositionNaut miles runAvg speedWind from/ knotsBaromVisibWave heightAir tempDewpointWater temp
2017-Nov-16 10:53N 25°28' W 079°31'512.8
2017-Nov-16 10:28N 25°33' W 079°30'912.8
2017-Nov-16 09:46N 25°42' W 079°28'312.7
2017-Nov-16 09:30N 25°45' W 079°27'612.6
2017-Nov-16 09:00N 25°51' W 079°26'612.5
2017-Nov-16 08:30N 25°58' W 079°26'612.3
2017-Nov-16 08:00N 26°04' W 079°26'612.2
2017-Nov-16 07:30N 26°10' W 079°26'612.3
2017-Nov-16 07:00N 26°16' W 079°25'  
2017-Nov-12 23:37N 39°37' W 072°44'313.3
2017-Nov-12 23:22N 39°40' W 072°47'713.4
2017-Nov-12 22:49N 39°45' W 072°54'2113.4
2017-Nov-12 21:13N 39°58' W 073°15'713.4
2017-Nov-12 20:44N 40°03' W 073°22'2613.3
2017-Nov-12 18:46N 40°22' W 073°44'610.8
2017-Nov-12 18:15N 40°27' W 073°49'310.0
2017-Nov-12 18:00N 40°28' W 073°52'5 9.8
2017-Nov-12 17:30N 40°30' W 073°58'611.5
2017-Nov-12 17:00N 40°35' W 074°02'4 8.3
2017-Nov-12 16:30N 40°39' W 074°03'0 0.3
2017-Nov-12 15:58N 40°39' W 074°03'0 0.1
2017-Nov-12 15:28N 40°39' W 074°03'0 0.0
2017-Nov-12 14:58N 40°39' W 074°03'0 0.0
2017-Nov-12 14:28N 40°39' W 074°03'0 0.0
2017-Nov-12 14:00N 40°39' W 074°03'1 2.8
2017-Nov-12 13:30N 40°37' W 074°03'510.1
2017-Nov-12 13:00N 40°32' W 074°02'4 7.9
2017-Nov-12 12:30N 40°29' W 074°05'611.0
2017-Nov-12 11:59N 40°30' W 074°13'3 5.3
2017-Nov-12 11:29N 40°32' W 074°15'3 5.4
2017-Nov-12 10:59N 40°34' W 074°13'1 2.1
2017-Nov-12 10:30N 40°35' W 074°12'0 0.0
2017-Nov-12 01:29N 40°35' W 074°13'0 0.0
2017-Nov-11 15:17N 40°35' W 074°13'0 0.0
2017-Nov-11 14:47N 40°35' W 074°13'0 0.0
2017-Nov-11 14:17N 40°35' W 074°13'0 0.0
2017-Nov-11 13:59N 40°35' W 074°13'0 0.0
2017-Nov-11 06:50N 40°35' W 074°13'1 1.8
2017-Nov-11 06:30N 40°35' W 074°13'2 4.5
2017-Nov-11 06:00N 40°33' W 074°15'3 4.7
2017-Nov-11 05:28N 40°31' W 074°15'2 3.9
2017-Nov-11 05:00N 40°30' W 074°13'4 7.2
2017-Nov-11 04:30N 40°30' W 074°09'4 8.5
2017-Nov-11 04:00N 40°29' W 074°03'5 9.9
2017-Nov-11 03:30N 40°28' W 073°57'4 7.3
2017-Nov-11 03:00N 40°27' W 073°52'4 7.1
2017-Nov-11 02:30N 40°27' W 073°47'5 9.8
2017-Nov-11 01:59N 40°28' W 073°41'4 7.5
2017-Nov-11 01:30N 40°29' W 073°36'4 4.4
2017-Nov-11 00:42N 40°30' W 073°32'5 0.9
2017-Nov-10 18:48N 40°29' W 073°38'1 2.5
2017-Nov-10 18:30N 40°29' W 073°38'2 0.5
2017-Nov-10 13:58N 40°30' W 073°35'2 4.4
2017-Nov-10 13:28N 40°29' W 073°38'2 3.4
2017-Nov-10 13:00N 40°29' W 073°40'1 2.8
2017-Nov-10 12:30N 40°29' W 073°38'3910.4
2017-Nov-10 08:44N 40°30' W 072°46'311.7
2017-Nov-10 08:29N 40°30' W 072°43'611.6
2017-Nov-10 07:58N 40°31' W 072°35'711.5
2017-Nov-10 07:22N 40°31' W 072°25'  
Track history (hours):
 
Tides and Currents Weather Stations Pressure Air Temp Water Temp Dewpoint Dewpoint Depression Visibility Wind Speed Wind Dir Waves Ship Positions

Fantasia

Last reported at 2017-Nov-16 10:53 UTC. Time now 2017-Nov-20 06:06 UTC.
Position N 25°28' W 079°31'.

Length 183 m; draft 8.1 m.

Type: Tanker. MMSI: 247279600.

Date/timePositionNaut miles runAvg speedWind from/ knotsBaromVisibWave heightAir tempDewpointWater temp
2017-Nov-16 10:53N 25°28' W 079°31'512.8
2017-Nov-16 10:28N 25°33' W 079°30'912.8
2017-Nov-16 09:46N 25°42' W 079°28'312.7
2017-Nov-16 09:30N 25°45' W 079°27'612.6
2017-Nov-16 09:00N 25°51' W 079°26'612.5
2017-Nov-16 08:30N 25°58' W 079°26'612.3
2017-Nov-16 08:00N 26°04' W 079°26'612.2
2017-Nov-16 07:30N 26°10' W 079°26'612.3
2017-Nov-16 07:00N 26°16' W 079°25'  
2017-Nov-12 23:37N 39°37' W 072°44'313.3
2017-Nov-12 23:22N 39°40' W 072°47'713.4
2017-Nov-12 22:49N 39°45' W 072°54'2113.4
2017-Nov-12 21:13N 39°58' W 073°15'713.4
2017-Nov-12 20:44N 40°03' W 073°22'2613.3
2017-Nov-12 18:46N 40°22' W 073°44'610.8
2017-Nov-12 18:15N 40°27' W 073°49'310.0
2017-Nov-12 18:00N 40°28' W 073°52'5 9.8
2017-Nov-12 17:30N 40°30' W 073°58'611.5
2017-Nov-12 17:00N 40°35' W 074°02'4 8.3
2017-Nov-12 16:30N 40°39' W 074°03'0 0.3
2017-Nov-12 15:58N 40°39' W 074°03'0 0.1
2017-Nov-12 15:28N 40°39' W 074°03'0 0.0
2017-Nov-12 14:58N 40°39' W 074°03'0 0.0
2017-Nov-12 14:28N 40°39' W 074°03'0 0.0
2017-Nov-12 14:00N 40°39' W 074°03'1 2.8
2017-Nov-12 13:30N 40°37' W 074°03'510.1
2017-Nov-12 13:00N 40°32' W 074°02'4 7.9
2017-Nov-12 12:30N 40°29' W 074°05'611.0
2017-Nov-12 11:59N 40°30' W 074°13'3 5.3
2017-Nov-12 11:29N 40°32' W 074°15'3 5.4
2017-Nov-12 10:59N 40°34' W 074°13'1 2.1
2017-Nov-12 10:30N 40°35' W 074°12'0 0.0
2017-Nov-12 01:29N 40°35' W 074°13'0 0.0
2017-Nov-11 15:17N 40°35' W 074°13'0 0.0
2017-Nov-11 14:47N 40°35' W 074°13'0 0.0
2017-Nov-11 14:17N 40°35' W 074°13'0 0.0
2017-Nov-11 13:59N 40°35' W 074°13'0 0.0
2017-Nov-11 06:50N 40°35' W 074°13'1 1.8
2017-Nov-11 06:30N 40°35' W 074°13'2 4.5
2017-Nov-11 06:00N 40°33' W 074°15'3 4.7
2017-Nov-11 05:28N 40°31' W 074°15'2 3.9
2017-Nov-11 05:00N 40°30' W 074°13'4 7.2
2017-Nov-11 04:30N 40°30' W 074°09'4 8.5
2017-Nov-11 04:00N 40°29' W 074°03'5 9.9
2017-Nov-11 03:30N 40°28' W 073°57'4 7.3
2017-Nov-11 03:00N 40°27' W 073°52'4 7.1
2017-Nov-11 02:30N 40°27' W 073°47'5 9.8
2017-Nov-11 01:59N 40°28' W 073°41'4 7.5
2017-Nov-11 01:30N 40°29' W 073°36'4 4.4
2017-Nov-11 00:42N 40°30' W 073°32'5 0.9
2017-Nov-10 18:48N 40°29' W 073°38'1 2.5
2017-Nov-10 18:30N 40°29' W 073°38'2 0.5
2017-Nov-10 13:58N 40°30' W 073°35'2 4.4
2017-Nov-10 13:28N 40°29' W 073°38'2 3.4
2017-Nov-10 13:00N 40°29' W 073°40'1 2.8
2017-Nov-10 12:30N 40°29' W 073°38'3910.4
2017-Nov-10 08:44N 40°30' W 072°46'311.7
2017-Nov-10 08:29N 40°30' W 072°43'611.6
2017-Nov-10 07:58N 40°31' W 072°35'711.5
2017-Nov-10 07:22N 40°31' W 072°25'  

Dump ship's entire track history